Kecel, Hungary
Current Conditions -  °F | °C
As of 4:15 PM on Thursday 27 Nov 2014 (Local Time) from LHKE Reporting Station
Clear Clear  
Wind Chill: 29°   Ceiling: Unl
Heat Index: 36°   Visibility: 4mi
Dew Point: 30°   Wind: 9mph
Humidity: 81%   Direction: 100°E
Pressure: 30.12"   Gusts: NA
Location:  46.53°N, 19.24°E
Report Text: LHKE 271415Z 10008KT 6000 NSC 02/M01 Q1020 BECMG 5000 BR RMK WHT
Loading
Personal Weather Stations






























Interactive Weather Map New forecast layout! Learn more

10-Day Weather Forecast

Advertisements
Track Severe Weather on mobile